sensor_id;sensor_type;location;lat;lon;timestamp;temperature;humidity
480;DHT22;226;48.606;9.096;2023-07-30T12:36:20;23.30;48.20
480;DHT22;226;48.606;9.096;2023-07-30T19:46:33;17.30;61.10
480;DHT22;226;48.606;9.096;2023-07-30T19:56:43;17.00;55.20
480;DHT22;226;48.606;9.096;2023-07-30T19:59:11;17.30;51.50
480;DHT22;226;48.606;9.096;2023-07-30T20:01:39;17.20;53.60
480;DHT22;226;48.606;9.096;2023-07-30T20:04:07;17.20;54.80
480;DHT22;226;48.606;9.096;2023-07-30T20:09:04;17.20;52.50
480;DHT22;226;48.606;9.096;2023-07-30T20:11:32;17.60;59.10
480;DHT22;226;48.606;9.096;2023-07-30T20:14:02;17.30;59.70
480;DHT22;226;48.606;9.096;2023-07-30T20:16:30;17.40;59.90
480;DHT22;226;48.606;9.096;2023-07-30T20:18:58;17.40;61.50
480;DHT22;226;48.606;9.096;2023-07-30T20:21:26;17.40;60.10
480;DHT22;226;48.606;9.096;2023-07-30T20:23:54;17.30;60.90
480;DHT22;226;48.606;9.096;2023-07-30T20:26:22;17.30;61.40
480;DHT22;226;48.606;9.096;2023-07-30T20:28:51;17.30;61.20
480;DHT22;226;48.606;9.096;2023-07-30T20:31:21;17.20;58.80
480;DHT22;226;48.606;9.096;2023-07-30T20:33:49;17.20;61.90
480;DHT22;226;48.606;9.096;2023-07-30T20:36:17;17.10;61.10
480;DHT22;226;48.606;9.096;2023-07-30T20:38:45;17.90;60.60
480;DHT22;226;48.606;9.096;2023-07-30T20:41:13;16.80;65.80
480;DHT22;226;48.606;9.096;2023-07-30T20:43:41;16.90;68.60
480;DHT22;226;48.606;9.096;2023-07-30T20:46:10;16.50;71.30
480;DHT22;226;48.606;9.096;2023-07-30T20:48:40;16.50;70.50
480;DHT22;226;48.606;9.096;2023-07-30T20:51:09;16.50;70.90
480;DHT22;226;48.606;9.096;2023-07-30T20:53:37;16.50;71.90
480;DHT22;226;48.606;9.096;2023-07-30T20:56:05;16.50;71.10
480;DHT22;226;48.606;9.096;2023-07-30T20:58:33;16.50;73.90
480;DHT22;226;48.606;9.096;2023-07-30T21:01:01;15.90;77.10
480;DHT22;226;48.606;9.096;2023-07-30T21:03:29;15.60;77.50
480;DHT22;226;48.606;9.096;2023-07-30T21:06:00;15.80;81.30
480;DHT22;226;48.606;9.096;2023-07-30T21:08:29;15.50;82.50
480;DHT22;226;48.606;9.096;2023-07-30T21:10:57;15.30;81.70
480;DHT22;226;48.606;9.096;2023-07-30T21:13:25;15.50;82.50
480;DHT22;226;48.606;9.096;2023-07-30T21:15:54;15.60;83.50
480;DHT22;226;48.606;9.096;2023-07-30T21:18:22;15.40;83.80
480;DHT22;226;48.606;9.096;2023-07-30T21:20:50;15.40;84.30
480;DHT22;226;48.606;9.096;2023-07-30T21:23:19;15.50;85.50
480;DHT22;226;48.606;9.096;2023-07-30T21:25:50;15.50;86.10
480;DHT22;226;48.606;9.096;2023-07-30T21:28:19;15.60;86.10
480;DHT22;226;48.606;9.096;2023-07-30T21:30:47;15.70;85.40
480;DHT22;226;48.606;9.096;2023-07-30T21:33:15;15.70;86.10
480;DHT22;226;48.606;9.096;2023-07-30T21:35:43;15.70;86.60
480;DHT22;226;48.606;9.096;2023-07-30T21:40:45;15.70;81.50
